sensor_id;sensor_type;location;lat;lon;timestamp;pressure;altitude;pressure_sealevel;temperature;humidity
60433;BME280;46286;48.098;11.590;2023-03-04T00:02:19;95824.69;;;-0.99;100.00
60433;BME280;46286;48.098;11.590;2023-03-04T00:04:44;95817.47;;;-1.03;100.00
60433;BME280;46286;48.098;11.590;2023-03-04T00:07:10;95813.50;;;-1.06;100.00
60433;BME280;46286;48.098;11.590;2023-03-04T00:09:42;95821.88;;;-1.04;100.00
60433;BME280;46286;48.098;11.590;2023-03-04T00:12:07;95817.22;;;-1.15;100.00
60433;BME280;46286;48.098;11.590;2023-03-04T00:14:33;95820.84;;;-1.10;100.00
60433;BME280;46286;48.098;11.590;2023-03-04T00:16:58;95820.63;;;-1.15;100.00
60433;BME280;46286;48.098;11.590;2023-03-04T00:19:24;95816.63;;;-1.17;100.00
60433;BME280;46286;48.098;11.590;2023-03-04T00:21:49;95821.41;;;-1.14;100.00
60433;BME280;46286;48.098;11.590;2023-03-04T00:24:15;95823.38;;;-1.16;100.00
60433;BME280;46286;48.098;11.590;2023-03-04T00:26:40;95821.41;;;-1.14;100.00
60433;BME280;46286;48.098;11.590;2023-03-04T00:29:06;95827.78;;;-1.10;100.00
60433;BME280;46286;48.098;11.590;2023-03-04T00:31:31;95826.13;;;-1.18;100.00
60433;BME280;46286;48.098;11.590;2023-03-04T00:33:57;95820.56;;;-1.22;100.00
60433;BME280;46286;48.098;11.590;2023-03-04T00:36:22;95821.41;;;-1.14;100.00
60433;BME280;46286;48.098;11.590;2023-03-04T00:38:49;95826.09;;;-1.25;100.00
60433;BME280;46286;48.098;11.590;2023-03-04T00:41:14;95829.28;;;-1.23;100.00
60433;BME280;46286;48.098;11.590;2023-03-04T00:43:40;95833.59;;;-1.30;100.00
60433;BME280;46286;48.098;11.590;2023-03-04T00:46:05;95831.13;;;-1.38;100.00
60433;BME280;46286;48.098;11.590;2023-03-04T00:48:31;95832.31;;;-1.41;100.00
60433;BME280;46286;48.098;11.590;2023-03-04T00:50:56;95829.97;;;-1.35;100.00
60433;BME280;46286;48.098;11.590;2023-03-04T00:53:22;95824.00;;;-1.36;100.00
60433;BME280;46286;48.098;11.590;2023-03-04T00:55:48;95834.34;;;-1.36;100.00
60433;BME280;46286;48.098;11.590;2023-03-04T00:58:14;95823.63;;;-1.33;100.00
60433;BME280;46286;48.098;11.590;2023-03-04T01:00:40;95828.31;;;-1.43;100.00
60433;BME280;46286;48.098;11.590;2023-03-04T01:03:05;95832.25;;;-1.47;100.00
60433;BME280;46286;48.098;11.590;2023-03-04T01:05:31;95827.94;;;-1.40;100.00
60433;BME280;46286;48.098;11.590;2023-03-04T01:07:58;95818.00;;;-1.43;100.00
60433;BME280;46286;48.098;11.590;2023-03-04T01:10:24;95819.72;;;-1.50;100.00
60433;BME280;46286;48.098;11.590;2023-03-04T01:12:50;95819.47;;;-1.55;100.00
60433;BME280;46286;48.098;11.590;2023-03-04T01:15:15;95816.28;;;-1.58;100.00
60433;BME280;46286;48.098;11.590;2023-03-04T01:17:41;95818.25;;;-1.60;100.00
60433;BME280;46286;48.098;11.590;2023-03-04T01:20:08;95810.75;;;-1.54;100.00
60433;BME280;46286;48.098;11.590;2023-03-04T01:22:33;95805.47;;;-1.68;100.00
60433;BME280;46286;48.098;11.590;2023-03-04T01:24:59;95813.41;;;-1.69;100.00
60433;BME280;46286;48.098;11.590;2023-03-04T01:27:25;95797.97;;;-1.63;100.00
60433;BME280;46286;48.098;11.590;2023-03-04T01:29:51;95812.22;;;-1.67;100.00
60433;BME280;46286;48.098;11.590;2023-03-04T01:32:16;95816.66;;;-1.61;100.00
60433;BME280;46286;48.098;11.590;2023-03-04T01:34:42;95802.34;;;-1.63;100.00
60433;BME280;46286;48.098;11.590;2023-03-04T01:37:07;95799.94;;;-1.65;100.00
60433;BME280;46286;48.098;11.590;2023-03-04T01:39:34;95796.00;;;-1.61;100.00
60433;BME280;46286;48.098;11.590;2023-03-04T01:41:59;95794.41;;;-1.62;100.00
60433;BME280;46286;48.098;11.590;2023-03-04T01:44:25;95796.75;;;-1.67;100.00
60433;BME280;46286;48.098;11.590;2023-03-04T01:46:52;95794.66;;;-1.57;100.00
60433;BME280;46286;48.098;11.590;2023-03-04T01:49:19;95799.44;;;-1.53;100.00
60433;BME280;46286;48.098;11.590;2023-03-04T01:51:52;95781.75;;;-1.57;100.00
60433;BME280;46286;48.098;11.590;2023-03-04T01:54:19;95786.41;;;-1.67;100.00
60433;BME280;46286;48.098;11.590;2023-03-04T01:56:46;95786.78;;;-1.70;100.00
60433;BME280;46286;48.098;11.590;2023-03-04T01:59:18;95781.44;;;-1.68;100.00
60433;BME280;46286;48.098;11.590;2023-03-04T02:01:52;95774.75;;;-1.63;100.00
60433;BME280;46286;48.098;11.590;2023-03-04T02:04:21;95776.34;;;-1.62;100.00
60433;BME280;46286;48.098;11.590;2023-03-04T02:06:48;95775.13;;;-1.66;100.00
60433;BME280;46286;48.098;11.590;2023-03-04T02:09:15;95775.97;;;-1.80;100.00
60433;BME280;46286;48.098;11.590;2023-03-04T02:11:42;95765.25;;;-1.84;100.00
60433;BME280;46286;48.098;11.590;2023-03-04T02:14:09;95764.91;;;-1.96;100.00
60433;BME280;46286;48.098;11.590;2023-03-04T02:16:35;95764.81;;;-2.09;100.00
60433;BME280;46286;48.098;11.590;2023-03-04T02:19:01;95759.38;;;-2.14;100.00
60433;BME280;46286;48.098;11.590;2023-03-04T02:21:29;95758.19;;;-2.18;100.00
60433;BME280;46286;48.098;11.590;2023-03-04T02:24:11;95762.09;;;-2.22;100.00
60433;BME280;46286;48.098;11.590;2023-03-04T02:26:42;95754.91;;;-2.05;100.00
60433;BME280;46286;48.098;11.590;2023-03-04T02:29:13;95751.91;;;-2.09;100.00
60433;BME280;46286;48.098;11.590;2023-03-04T02:31:44;95748.84;;;-2.19;100.00
60433;BME280;46286;48.098;11.590;2023-03-04T02:34:16;95749.13;;;-2.29;100.00
60433;BME280;46286;48.098;11.590;2023-03-04T02:36:43;95754.00;;;-2.34;100.00
60433;BME280;46286;48.098;11.590;2023-03-04T02:39:34;95752.81;;;-2.38;100.00
60433;BME280;46286;48.098;11.590;2023-03-04T02:42:01;95754.66;;;-2.47;100.00
60433;BME280;46286;48.098;11.590;2023-03-04T02:44:36;95748.31;;;-2.51;100.00
60433;BME280;46286;48.098;11.590;2023-03-04T02:47:04;95754.06;;;-2.49;100.00
60433;BME280;46286;48.098;11.590;2023-03-04T02:49:31;95757.38;;;-2.55;100.00
60433;BME280;46286;48.098;11.590;2023-03-04T02:52:00;95748.78;;;-2.63;100.00
60433;BME280;46286;48.098;11.590;2023-03-04T02:54:26;95754.53;;;-2.61;100.00
60433;BME280;46286;48.098;11.590;2023-03-04T02:56:55;95746.00;;;-2.61;100.00
60433;BME280;46286;48.098;11.590;2023-03-04T02:59:22;95750.97;;;-2.59;100.00
60433;BME280;46286;48.098;11.590;2023-03-04T03:01:48;95751.94;;;-2.61;100.00
60433;BME280;46286;48.098;11.590;2023-03-04T03:04:14;95745.38;;;-2.63;100.00
60433;BME280;46286;48.098;11.590;2023-03-04T03:06:40;95746.19;;;-2.63;100.00
60433;BME280;46286;48.098;11.590;2023-03-04T03:09:06;95738.88;;;-2.59;100.00
60433;BME280;46286;48.098;11.590;2023-03-04T03:11:32;95749.88;;;-2.50;100.00
60433;BME280;46286;48.098;11.590;2023-03-04T03:13:57;95745.09;;;-2.53;100.00
60433;BME280;46286;48.098;11.590;2023-03-04T03:16:23;95750.63;;;-2.56;100.00
60433;BME280;46286;48.098;11.590;2023-03-04T03:18:49;95744.41;;;-2.62;100.00
60433;BME280;46286;48.098;11.590;2023-03-04T03:21:14;95744.59;;;-2.64;100.00
60433;BME280;46286;48.098;11.590;2023-03-04T03:23:40;95749.72;;;-2.64;100.00
60433;BME280;46286;48.098;11.590;2023-03-04T03:26:05;95752.22;;;-2.55;100.00
60433;BME280;46286;48.098;11.590;2023-03-04T03:28:31;95758.63;;;-2.51;100.00
60433;BME280;46286;48.098;11.590;2023-03-04T03:30:57;95753.09;;;-2.48;100.00
60433;BME280;46286;48.098;11.590;2023-03-04T03:33:23;95761.00;;;-2.50;100.00
60433;BME280;46286;48.098;11.590;2023-03-04T03:35:48;95757.75;;;-2.58;100.00
60433;BME280;46286;48.098;11.590;2023-03-04T03:38:14;95757.78;;;-2.52;100.00
60433;BME280;46286;48.098;11.590;2023-03-04T03:40:40;95754.66;;;-2.47;100.00
60433;BME280;46286;48.098;11.590;2023-03-04T03:43:05;95753.47;;;-2.51;100.00
60433;BME280;46286;48.098;11.590;2023-03-04T03:45:31;95752.59;;;-2.58;100.00
60433;BME280;46286;48.098;11.590;2023-03-04T03:47:56;95759.72;;;-2.39;100.00
60433;BME280;46286;48.098;11.590;2023-03-04T03:50:22;95755.47;;;-2.10;100.00
60433;BME280;46286;48.098;11.590;2023-03-04T03:52:48;95753.06;;;-2.12;100.00
60433;BME280;46286;48.098;11.590;2023-03-04T03:55:13;95758.66;;;-2.08;100.00
60433;BME280;46286;48.098;11.590;2023-03-04T03:57:39;95757.56;;;-1.99;100.00
60433;BME280;46286;48.098;11.590;2023-03-04T04:00:06;95751.53;;;-2.06;100.00
60433;BME280;46286;48.098;11.590;2023-03-04T04:02:32;95756.75;;;-1.99;100.00
60433;BME280;46286;48.098;11.590;2023-03-04T04:04:57;95752.41;;;-1.99;100.00
60433;BME280;46286;48.098;11.590;2023-03-04T04:07:23;95747.25;;;-1.99;100.00
60433;BME280;46286;48.098;11.590;2023-03-04T04:09:49;95754.00;;;-1.98;100.00
60433;BME280;46286;48.098;11.590;2023-03-04T04:12:15;95749.31;;;-1.87;100.00
60433;BME280;46286;48.098;11.590;2023-03-04T04:14:41;95751.06;;;-1.95;100.00
60433;BME280;46286;48.098;11.590;2023-03-04T04:17:07;95748.91;;;-1.91;100.00
60433;BME280;46286;48.098;11.590;2023-03-04T04:19:33;95747.91;;;-2.12;100.00
60433;BME280;46286;48.098;11.590;2023-03-04T04:21:58;95751.59;;;-1.99;100.00
60433;BME280;46286;48.098;11.590;2023-03-04T04:24:24;95747.88;;;-1.97;100.00
60433;BME280;46286;48.098;11.590;2023-03-04T04:26:49;95752.66;;;-1.94;100.00
60433;BME280;46286;48.098;11.590;2023-03-04T04:29:15;95754.78;;;-1.97;100.00
60433;BME280;46286;48.098;11.590;2023-03-04T04:31:41;95755.34;;;-2.02;100.00
60433;BME280;46286;48.098;11.590;2023-03-04T04:34:06;95754.31;;;-2.07;100.00
60433;BME280;46286;48.098;11.590;2023-03-04T04:36:32;95752.66;;;-2.15;100.00
60433;BME280;46286;48.098;11.590;2023-03-04T04:38:58;95750.66;;;-2.13;100.00
60433;BME280;46286;48.098;11.590;2023-03-04T04:41:27;95757.44;;;-2.12;100.00
60433;BME280;46286;48.098;11.590;2023-03-04T04:43:54;95753.25;;;-2.13;100.00
60433;BME280;46286;48.098;11.590;2023-03-04T04:46:20;95752.28;;;-2.12;100.00
60433;BME280;46286;48.098;11.590;2023-03-04T04:48:46;95754.41;;;-1.94;100.00
60433;BME280;46286;48.098;11.590;2023-03-04T04:51:12;95749.59;;;-2.04;100.00
60433;BME280;46286;48.098;11.590;2023-03-04T04:53:37;95753.34;;;-2.21;100.00
60433;BME280;46286;48.098;11.590;2023-03-04T04:56:11;95750.53;;;-2.27;100.00
60433;BME280;46286;48.098;11.590;2023-03-04T04:58:37;95749.06;;;-2.14;100.00
60433;BME280;46286;48.098;11.590;2023-03-04T05:01:04;95751.69;;;-2.29;100.00
60433;BME280;46286;48.098;11.590;2023-03-04T05:03:30;95751.53;;;-2.28;100.00
60433;BME280;46286;48.098;11.590;2023-03-04T05:05:56;95759.25;;;-2.28;100.00
60433;BME280;46286;48.098;11.590;2023-03-04T05:08:22;95757.72;;;-2.22;100.00
60433;BME280;46286;48.098;11.590;2023-03-04T05:10:47;95752.06;;;-2.32;100.00
60433;BME280;46286;48.098;11.590;2023-03-04T05:13:13;95762.09;;;-2.22;100.00
60433;BME280;46286;48.098;11.590;2023-03-04T05:15:38;95763.06;;;-2.23;100.00
60433;BME280;46286;48.098;11.590;2023-03-04T05:18:04;95756.78;;;-2.36;100.00
60433;BME280;46286;48.098;11.590;2023-03-04T05:20:29;95752.16;;;-2.25;100.00
60433;BME280;46286;48.098;11.590;2023-03-04T05:22:55;95759.03;;;-2.33;100.00
60433;BME280;46286;48.098;11.590;2023-03-04T05:25:20;95756.44;;;-2.33;100.00
60433;BME280;46286;48.098;11.590;2023-03-04T05:27:46;95754.34;;;-2.44;100.00
60433;BME280;46286;48.098;11.590;2023-03-04T05:30:12;95755.31;;;-2.45;100.00
60433;BME280;46286;48.098;11.590;2023-03-04T05:32:37;95752.72;;;-2.45;100.00
60433;BME280;46286;48.098;11.590;2023-03-04T05:35:03;95751.19;;;-2.39;100.00
60433;BME280;46286;48.098;11.590;2023-03-04T05:37:29;95759.50;;;-2.44;100.00
60433;BME280;46286;48.098;11.590;2023-03-04T05:39:55;95760.09;;;-2.42;100.00
60433;BME280;46286;48.098;11.590;2023-03-04T05:42:20;95756.63;;;-2.49;100.00
60433;BME280;46286;48.098;11.590;2023-03-04T05:44:46;95762.16;;;-2.52;100.00
60433;BME280;46286;48.098;11.590;2023-03-04T05:47:11;95751.22;;;-2.54;100.00
60433;BME280;46286;48.098;11.590;2023-03-04T05:49:37;95761.94;;;-2.36;100.00
60433;BME280;46286;48.098;11.590;2023-03-04T05:52:02;95758.75;;;-2.38;100.00
60433;BME280;46286;48.098;11.590;2023-03-04T05:54:28;95753.59;;;-2.38;100.00
60433;BME280;46286;48.098;11.590;2023-03-04T05:56:53;95762.56;;;-2.34;100.00
60433;BME280;46286;48.098;11.590;2023-03-04T05:59:19;95769.16;;;-2.31;100.00
60433;BME280;46286;48.098;11.590;2023-03-04T06:01:45;95768.97;;;-2.30;100.00
60433;BME280;46286;48.098;11.590;2023-03-04T06:04:11;95771.16;;;-2.27;100.00
60433;BME280;46286;48.098;11.590;2023-03-04T06:06:36;95768.31;;;-2.32;100.00
60433;BME280;46286;48.098;11.590;2023-03-04T06:09:02;95772.41;;;-2.22;100.00
60433;BME280;46286;48.098;11.590;2023-03-04T06:11:28;95776.25;;;-2.33;100.00
60433;BME280;46286;48.098;11.590;2023-03-04T06:13:54;95778.28;;;-2.29;100.00
60433;BME280;46286;48.098;11.590;2023-03-04T06:16:19;95782.47;;;-2.28;100.00
60433;BME280;46286;48.098;11.590;2023-03-04T06:18:45;95778.81;;;-2.18;100.00
60433;BME280;46286;48.098;11.590;2023-03-04T06:21:11;95783.09;;;-2.25;100.00
60433;BME280;46286;48.098;11.590;2023-03-04T06:23:37;95782.97;;;-2.17;100.00
60433;BME280;46286;48.098;11.590;2023-03-04T06:26:02;95782.34;;;-2.19;100.00
60433;BME280;46286;48.098;11.590;2023-03-04T06:28:28;95790.69;;;-2.17;100.00
60433;BME280;46286;48.098;11.590;2023-03-04T06:30:55;95797.09;;;-2.13;100.00
60433;BME280;46286;48.098;11.590;2023-03-04T06:33:21;95796.53;;;-2.09;100.00
60433;BME280;46286;48.098;11.590;2023-03-04T06:35:47;95798.31;;;-2.09;100.00
60433;BME280;46286;48.098;11.590;2023-03-04T06:38:13;95803.47;;;-2.09;100.00
60433;BME280;46286;48.098;11.590;2023-03-04T06:40:38;95802.38;;;-2.00;100.00
60433;BME280;46286;48.098;11.590;2023-03-04T06:43:04;95801.41;;;-1.99;100.00
60433;BME280;46286;48.098;11.590;2023-03-04T06:45:29;95800.06;;;-1.95;100.00
60433;BME280;46286;48.098;11.590;2023-03-04T06:47:55;95796.13;;;-1.90;100.00
60433;BME280;46286;48.098;11.590;2023-03-04T06:50:20;95799.31;;;-1.88;100.00
60433;BME280;46286;48.098;11.590;2023-03-04T06:52:46;95798.94;;;-1.85;100.00
60433;BME280;46286;48.098;11.590;2023-03-04T06:55:13;95797.41;;;-1.80;100.00
60433;BME280;46286;48.098;11.590;2023-03-04T06:57:39;95807.81;;;-1.73;100.00
60433;BME280;46286;48.098;11.590;2023-03-04T07:00:05;95800.69;;;-1.71;100.00
60433;BME280;46286;48.098;11.590;2023-03-04T07:02:31;95805.84;;;-1.71;100.00
60433;BME280;46286;48.098;11.590;2023-03-04T07:04:56;95816.03;;;-1.63;100.00
60433;BME280;46286;48.098;11.590;2023-03-04T07:07:22;95812.78;;;-1.50;100.00
60433;BME280;46286;48.098;11.590;2023-03-04T07:09:47;95810.84;;;-1.41;100.00
60433;BME280;46286;48.098;11.590;2023-03-04T07:12:13;95812.84;;;-1.43;100.00
60433;BME280;46286;48.098;11.590;2023-03-04T07:14:39;95812.47;;;-1.40;100.00
60433;BME280;46286;48.098;11.590;2023-03-04T07:17:04;95814.91;;;-1.32;100.00
60433;BME280;46286;48.098;11.590;2023-03-04T07:19:30;95812.16;;;-1.30;100.00
60433;BME280;46286;48.098;11.590;2023-03-04T07:21:55;95813.97;;;-1.24;100.00
60433;BME280;46286;48.098;11.590;2023-03-04T07:24:21;95821.41;;;-1.14;100.00
60433;BME280;46286;48.098;11.590;2023-03-04T07:26:46;95816.28;;;-1.08;100.00
60433;BME280;46286;48.098;11.590;2023-03-04T07:29:12;95817.91;;;-1.00;100.00
60433;BME280;46286;48.098;11.590;2023-03-04T07:31:38;95820.59;;;-0.87;100.00
60433;BME280;46286;48.098;11.590;2023-03-04T07:34:05;95823.03;;;-0.78;100.00
60433;BME280;46286;48.098;11.590;2023-03-04T07:36:34;95831.69;;;-0.58;100.00
60433;BME280;46286;48.098;11.590;2023-03-04T07:39:00;95839.22;;;-0.63;100.00
60433;BME280;46286;48.098;11.590;2023-03-04T07:41:26;95830.84;;;-0.65;100.00
60433;BME280;46286;48.098;11.590;2023-03-04T07:43:52;95840.66;;;-0.54;100.00
60433;BME280;46286;48.098;11.590;2023-03-04T07:46:18;95835.72;;;-0.48;100.00
60433;BME280;46286;48.098;11.590;2023-03-04T07:48:44;95832.94;;;-0.47;100.00
60433;BME280;46286;48.098;11.590;2023-03-04T07:51:13;95844.91;;;-0.39;100.00
60433;BME280;46286;48.098;11.590;2023-03-04T07:53:40;95839.38;;;-0.29;100.00
60433;BME280;46286;48.098;11.590;2023-03-04T07:56:09;95841.00;;;-0.22;100.00
60433;BME280;46286;48.098;11.590;2023-03-04T07:58:35;95844.00;;;-0.18;100.00
60433;BME280;46286;48.098;11.590;2023-03-04T08:01:08;95848.16;;;-0.24;100.00
60433;BME280;46286;48.098;11.590;2023-03-04T08:03:34;95853.72;;;-0.27;100.00
60433;BME280;46286;48.098;11.590;2023-03-04T08:06:03;95841.47;;;-0.05;100.00
60433;BME280;46286;48.098;11.590;2023-03-04T08:08:28;95850.03;;;-0.04;100.00
60433;BME280;46286;48.098;11.590;2023-03-04T08:10:54;95850.28;;;0.14;100.00
60433;BME280;46286;48.098;11.590;2023-03-04T08:13:20;95847.31;;;0.17;100.00
60433;BME280;46286;48.098;11.590;2023-03-04T08:15:46;95846.69;;;0.15;100.00
60433;BME280;46286;48.098;11.590;2023-03-04T08:18:11;95851.88;;;0.15;100.00
60433;BME280;46286;48.098;11.590;2023-03-04T08:20:41;95845.94;;;0.22;100.00
60433;BME280;46286;48.098;11.590;2023-03-04T08:23:08;95850.72;;;0.25;100.00
60433;BME280;46286;48.098;11.590;2023-03-04T08:25:38;95851.53;;;0.32;100.00
60433;BME280;46286;48.098;11.590;2023-03-04T08:28:04;95851.34;;;0.33;100.00
60433;BME280;46286;48.098;11.590;2023-03-04T08:30:29;95862.31;;;0.42;100.00
60433;BME280;46286;48.098;11.590;2023-03-04T08:32:55;95850.94;;;0.50;100.00
60433;BME280;46286;48.098;11.590;2023-03-04T08:35:21;95851.78;;;0.64;100.00
60433;BME280;46286;48.098;11.590;2023-03-04T08:37:46;95848.38;;;0.57;100.00
60433;BME280;46286;48.098;11.590;2023-03-04T08:40:12;95856.78;;;0.72;100.00
60433;BME280;46286;48.098;11.590;2023-03-04T08:42:38;95851.59;;;0.72;100.00
60433;BME280;46286;48.098;11.590;2023-03-04T08:45:04;95848.78;;;0.67;100.00
60433;BME280;46286;48.098;11.590;2023-03-04T08:47:29;95847.59;;;0.76;100.00
60433;BME280;46286;48.098;11.590;2023-03-04T08:49:55;95852.38;;;0.73;100.00
60433;BME280;46286;48.098;11.590;2023-03-04T08:52:23;95852.00;;;0.82;100.00
60433;BME280;46286;48.098;11.590;2023-03-04T08:54:48;95851.41;;;0.94;100.00
60433;BME280;46286;48.098;11.590;2023-03-04T08:57:14;95856.38;;;0.89;100.00
60433;BME280;46286;48.098;11.590;2023-03-04T08:59:39;95853.59;;;0.97;100.00
60433;BME280;46286;48.098;11.590;2023-03-04T09:02:05;95853.38;;;0.92;100.00
60433;BME280;46286;48.098;11.590;2023-03-04T09:04:31;95852.78;;;1.10;100.00
60433;BME280;46286;48.098;11.590;2023-03-04T09:06:56;95849.59;;;1.21;100.00
60433;BME280;46286;48.098;11.590;2023-03-04T09:09:22;95849.00;;;1.12;100.00
60433;BME280;46286;48.098;11.590;2023-03-04T09:11:47;95848.19;;;1.18;100.00
60433;BME280;46286;48.098;11.590;2023-03-04T09:14:13;95844.56;;;1.33;100.00
60433;BME280;46286;48.098;11.590;2023-03-04T09:16:38;95850.75;;;1.45;100.00
60433;BME280;46286;48.098;11.590;2023-03-04T09:19:04;95845.16;;;1.35;100.00
60433;BME280;46286;48.098;11.590;2023-03-04T09:21:29;95838.13;;;1.55;100.00
60433;BME280;46286;48.098;11.590;2023-03-04T09:23:55;95832.72;;;1.64;100.00
60433;BME280;46286;48.098;11.590;2023-03-04T09:26:23;95834.47;;;1.77;100.00
60433;BME280;46286;48.098;11.590;2023-03-04T09:28:51;95831.63;;;1.92;100.00
60433;BME280;46286;48.098;11.590;2023-03-04T09:31:17;95825.81;;;1.89;100.00
60433;BME280;46286;48.098;11.590;2023-03-04T09:33:43;95824.53;;;2.12;100.00
60433;BME280;46286;48.098;11.590;2023-03-04T09:36:10;95831.09;;;2.21;100.00
60433;BME280;46286;48.098;11.590;2023-03-04T09:38:36;95825.56;;;2.43;100.00
60433;BME280;46286;48.098;11.590;2023-03-04T09:41:07;95833.25;;;2.56;100.00
60433;BME280;46286;48.098;11.590;2023-03-04T09:43:33;95834.09;;;2.82;100.00
60433;BME280;46286;48.098;11.590;2023-03-04T09:46:07;95829.94;;;2.74;100.00
60433;BME280;46286;48.098;11.590;2023-03-04T09:48:50;95832.78;;;2.91;100.00
60433;BME280;46286;48.098;11.590;2023-03-04T09:51:27;95833.03;;;3.34;100.00
60433;BME280;46286;48.098;11.590;2023-03-04T09:54:04;95831.69;;;3.68;100.00
60433;BME280;46286;48.098;11.590;2023-03-04T09:56:37;95837.25;;;3.72;100.00
60433;BME280;46286;48.098;11.590;2023-03-04T09:59:23;95832.91;;;3.66;100.00
60433;BME280;46286;48.098;11.590;2023-03-04T10:01:56;95834.50;;;3.85;100.00
60433;BME280;46286;48.098;11.590;2023-03-04T10:04:47;95823.94;;;3.80;100.00
60433;BME280;46286;48.098;11.590;2023-03-04T10:07:25;95818.69;;;4.17;100.00
60433;BME280;46286;48.098;11.590;2023-03-04T10:10:16;95820.53;;;4.28;100.00
60433;BME280;46286;48.098;11.590;2023-03-04T10:12:45;95813.44;;;4.47;100.00
60433;BME280;46286;48.098;11.590;2023-03-04T10:15:23;95807.53;;;4.94;100.00
60433;BME280;46286;48.098;11.590;2023-03-04T10:17:56;95808.81;;;5.80;100.00
60433;BME280;46286;48.098;11.590;2023-03-04T10:20:26;95806.81;;;6.39;100.00
60433;BME280;46286;48.098;11.590;2023-03-04T10:22:57;95794.28;;;7.09;100.00
60433;BME280;46286;48.098;11.590;2023-03-04T10:25:29;95794.09;;;6.31;100.00
60433;BME280;46286;48.098;11.590;2023-03-04T10:27:57;95797.06;;;7.59;100.00
60433;BME280;46286;48.098;11.590;2023-03-04T10:33:01;95776.44;;;8.12;95.48
60433;BME280;46286;48.098;11.590;2023-03-04T10:35:32;95790.34;;;7.68;99.42
60433;BME280;46286;48.098;11.590;2023-03-04T10:38:02;95783.50;;;8.39;88.14
60433;BME280;46286;48.098;11.590;2023-03-04T10:40:28;95774.16;;;8.75;91.82
60433;BME280;46286;48.098;11.590;2023-03-04T10:42:54;95780.28;;;9.87;82.36
60433;BME280;46286;48.098;11.590;2023-03-04T10:45:25;95786.69;;;9.53;85.78
60433;BME280;46286;48.098;11.590;2023-03-04T10:47:55;95771.72;;;9.06;86.14
60433;BME280;46286;48.098;11.590;2023-03-04T10:50:24;95774.16;;;9.66;80.57
60433;BME280;46286;48.098;11.590;2023-03-04T10:52:50;95772.00;;;9.58;83.01
60433;BME280;46286;48.098;11.590;2023-03-04T10:55:28;95771.63;;;9.97;82.86
60433;BME280;46286;48.098;11.590;2023-03-04T10:57:55;95779.56;;;10.07;78.05
60433;BME280;46286;48.098;11.590;2023-03-04T11:00:32;95772.84;;;10.57;76.27
60433;BME280;46286;48.098;11.590;2023-03-04T11:03:31;95766.50;;;10.74;77.15
60433;BME280;46286;48.098;11.590;2023-03-04T11:08:32;95761.25;;;10.53;73.22
60433;BME280;46286;48.098;11.590;2023-03-04T11:10:58;95752.19;;;11.47;70.66
60433;BME280;46286;48.098;11.590;2023-03-04T11:13:25;95764.94;;;10.94;68.11
60433;BME280;46286;48.098;11.590;2023-03-04T11:15:52;95760.44;;;11.90;65.49
60433;BME280;46286;48.098;11.590;2023-03-04T11:18:22;95757.03;;;10.47;67.28
60433;BME280;46286;48.098;11.590;2023-03-04T11:20:53;95769.91;;;11.21;66.69
60433;BME280;46286;48.098;11.590;2023-03-04T11:23:38;95758.63;;;10.89;65.47
60433;BME280;46286;48.098;11.590;2023-03-04T11:26:16;95763.22;;;12.20;58.81
60433;BME280;46286;48.098;11.590;2023-03-04T11:28:48;95761.59;;;12.63;57.20
60433;BME280;46286;48.098;11.590;2023-03-04T11:31:22;95761.09;;;9.86;64.06
60433;BME280;46286;48.098;11.590;2023-03-04T11:38:49;95747.88;;;12.96;56.38
60433;BME280;46286;48.098;11.590;2023-03-04T11:41:19;95754.59;;;12.04;59.54
60433;BME280;46286;48.098;11.590;2023-03-04T11:43:47;95745.13;;;12.03;55.51
60433;BME280;46286;48.098;11.590;2023-03-04T11:52:01;95739.53;;;12.49;53.85
60433;BME280;46286;48.098;11.590;2023-03-04T12:00:00;95725.56;;;13.37;50.90
60433;BME280;46286;48.098;11.590;2023-03-04T12:02:45;95727.38;;;14.03;54.77
60433;BME280;46286;48.098;11.590;2023-03-04T12:05:22;95715.44;;;13.44;52.50
60433;BME280;46286;48.098;11.590;2023-03-04T12:08:15;95720.97;;;14.10;49.62
60433;BME280;46286;48.098;11.590;2023-03-04T12:11:05;95713.94;;;13.38;50.39
60433;BME280;46286;48.098;11.590;2023-03-04T12:14:07;95728.56;;;11.11;59.09
60433;BME280;46286;48.098;11.590;2023-03-04T12:20:14;95711.63;;;11.38;57.77
60433;BME280;46286;48.098;11.590;2023-03-04T12:22:46;95713.50;;;11.98;57.51
60433;BME280;46286;48.098;11.590;2023-03-04T12:25:22;95698.19;;;12.98;54.18
60433;BME280;46286;48.098;11.590;2023-03-04T12:30:40;95700.03;;;12.39;54.82
60433;BME280;46286;48.098;11.590;2023-03-04T12:41:38;95676.84;;;13.18;48.65
60433;BME280;46286;48.098;11.590;2023-03-04T12:50:01;95666.47;;;14.09;47.37
60433;BME280;46286;48.098;11.590;2023-03-04T12:52:47;95671.22;;;14.78;45.94
60433;BME280;46286;48.098;11.590;2023-03-04T12:55:19;95662.38;;;14.68;44.27
60433;BME280;46286;48.098;11.590;2023-03-04T12:57:48;95659.53;;;14.46;45.28
60433;BME280;46286;48.098;11.590;2023-03-04T13:00:48;95662.56;;;13.44;48.12
60433;BME280;46286;48.098;11.590;2023-03-04T13:03:32;95663.47;;;14.81;43.26
60433;BME280;46286;48.098;11.590;2023-03-04T13:14:05;95647.09;;;13.94;47.79
60433;BME280;46286;48.098;11.590;2023-03-04T13:16:43;95635.66;;;15.62;42.12
60433;BME280;46286;48.098;11.590;2023-03-04T13:19:42;95634.06;;;14.50;42.77
60433;BME280;46286;48.098;11.590;2023-03-04T13:25:37;95637.88;;;13.73;49.24
60433;BME280;46286;48.098;11.590;2023-03-04T13:36:04;95634.16;;;13.30;50.47
60433;BME280;46286;48.098;11.590;2023-03-04T13:38:35;95626.72;;;13.38;50.69
60433;BME280;46286;48.098;11.590;2023-03-04T13:43:44;95632.63;;;11.27;55.96
60433;BME280;46286;48.098;11.590;2023-03-04T13:56:33;95620.19;;;10.47;60.09
60433;BME280;46286;48.098;11.590;2023-03-04T14:06:47;95631.97;;;8.08;78.30
60433;BME280;46286;48.098;11.590;2023-03-04T14:09:33;95627.22;;;8.80;70.60
60433;BME280;46286;48.098;11.590;2023-03-04T14:12:04;95624.38;;;7.79;77.56